BAW6M EGKK-EDDL
Flight info
| Callsign | BAW6M |
|---|---|
| Flight time | 0h 47m |
| Altitude | 33000 |
| Route | DVR L9 KONAN DCT KOK UL607 SPI Y862 KENUM M170 NVO T857 BIKMU BIKMU1A |
| Aircraft | A320/M-SDE3FGHIRWY/LB1 |
Departure
| Time | 2026-05-05 18:55 |
|---|---|
| Airport | London Gatwick Airport (EGKK) |
Arrival
| Time | 2026-05-05 19:42 |
|---|---|
| Airport | Düsseldorf Airport (EDDL) |
| Time | Latitude | Longitude | Altitude | Speed | Heading |
|---|---|---|---|---|---|
| 2026-05-05 18:27 | 51.15581 | -0.17685 | 212 ft | 0 kts | 347° |
| 2026-05-05 18:44 | 51.15572 | -0.17682 | 216 ft | 4 kts | 347° |
| 2026-05-05 18:44 | 51.15552 | -0.17674 | 215 ft | 2 kts | 358° |
| 2026-05-05 18:44 | 51.15539 | -0.17668 | 208 ft | 2 kts | 20° |
| 2026-05-05 18:44 | 51.15528 | -0.17669 | 214 ft | 2 kts | 288° |
| 2026-05-05 18:45 | 51.15520 | -0.17661 | 215 ft | 2 kts | 344° |
| 2026-05-05 18:45 | 51.15513 | -0.17654 | 217 ft | 0 kts | 255° |
| 2026-05-05 18:48 | 51.15513 | -0.17656 | 217 ft | 1 kts | 255° |
| 2026-05-05 18:48 | 51.15510 | -0.17674 | 207 ft | 3 kts | 261° |
| 2026-05-05 18:48 | 51.15505 | -0.17728 | 208 ft | 8 kts | 261° |
| 2026-05-05 18:48 | 51.15495 | -0.17824 | 205 ft | 10 kts | 261° |
| 2026-05-05 18:49 | 51.15481 | -0.17941 | 208 ft | 12 kts | 259° |
| 2026-05-05 18:49 | 51.15462 | -0.18079 | 209 ft | 14 kts | 258° |
| 2026-05-05 18:49 | 51.15442 | -0.18224 | 209 ft | 10 kts | 258° |
| 2026-05-05 18:49 | 51.15392 | -0.18281 | 205 ft | 11 kts | 174° |
| 2026-05-05 18:50 | 51.15313 | -0.18254 | 208 ft | 13 kts | 167° |
| 2026-05-05 18:50 | 51.15224 | -0.18224 | 209 ft | 11 kts | 175° |
| 2026-05-05 18:50 | 51.15187 | -0.18326 | 212 ft | 13 kts | 261° |
| 2026-05-05 18:50 | 51.15167 | -0.18477 | 212 ft | 15 kts | 258° |
| 2026-05-05 18:51 | 51.15142 | -0.18652 | 209 ft | 17 kts | 257° |
| 2026-05-05 18:51 | 51.15116 | -0.18850 | 208 ft | 20 kts | 258° |
| 2026-05-05 18:51 | 51.15085 | -0.19071 | 215 ft | 21 kts | 256° |
| 2026-05-05 18:51 | 51.15053 | -0.19311 | 213 ft | 23 kts | 261° |
| 2026-05-05 18:52 | 51.15018 | -0.19568 | 209 ft | 25 kts | 254° |
| 2026-05-05 18:52 | 51.14985 | -0.19801 | 211 ft | 21 kts | 258° |
| 2026-05-05 18:52 | 51.14951 | -0.20045 | 209 ft | 24 kts | 256° |
| 2026-05-05 18:52 | 51.14914 | -0.20311 | 205 ft | 25 kts | 258° |
| 2026-05-05 18:53 | 51.14874 | -0.20595 | 209 ft | 27 kts | 257° |
| 2026-05-05 18:53 | 51.14833 | -0.20897 | 205 ft | 28 kts | 258° |
| 2026-05-05 18:53 | 51.14788 | -0.21196 | 207 ft | 28 kts | 252° |
| 2026-05-05 18:53 | 51.14731 | -0.21418 | 205 ft | 13 kts | 190° |
| 2026-05-05 18:54 | 51.14660 | -0.21354 | 210 ft | 13 kts | 151° |
| 2026-05-05 18:54 | 51.14569 | -0.21305 | 206 ft | 15 kts | 151° |
| 2026-05-05 18:54 | 51.14520 | -0.21177 | 211 ft | 9 kts | 91° |
| 2026-05-05 18:54 | 51.14540 | -0.21036 | 216 ft | 24 kts | 77° |
| 2026-05-05 18:55 | 51.14624 | -0.20423 | 209 ft | 89 kts | 77° |
| 2026-05-05 18:55 | 51.14797 | -0.19169 | 214 ft | 141 kts | 77° |
| 2026-05-05 18:55 | 51.15034 | -0.17444 | 350 ft | 169 kts | 77° |
| 2026-05-05 18:55 | 51.15286 | -0.15598 | 912 ft | 172 kts | 77° |
| 2026-05-05 18:56 | 51.15540 | -0.13731 | 1502 ft | 176 kts | 77° |
| 2026-05-05 18:56 | 51.15818 | -0.11713 | 1772 ft | 197 kts | 77° |
| 2026-05-05 18:56 | 51.16125 | -0.09484 | 1996 ft | 222 kts | 77° |
| 2026-05-05 18:56 | 51.16479 | -0.06935 | 2335 ft | 248 kts | 77° |
| 2026-05-05 18:57 | 51.16864 | -0.04154 | 2896 ft | 265 kts | 77° |
| 2026-05-05 18:57 | 51.17083 | -0.01226 | 3767 ft | 268 kts | 89° |
| 2026-05-05 18:57 | 51.17048 | 0.01770 | 4641 ft | 271 kts | 93° |
| 2026-05-05 18:57 | 51.16923 | 0.04755 | 5566 ft | 273 kts | 94° |
| 2026-05-05 18:58 | 51.16792 | 0.07785 | 6369 ft | 275 kts | 94° |
| 2026-05-05 18:58 | 51.16681 | 0.10850 | 7204 ft | 279 kts | 93° |
| 2026-05-05 18:58 | 51.16592 | 0.13953 | 8013 ft | 282 kts | 93° |
| 2026-05-05 18:58 | 51.16426 | 0.17087 | 8802 ft | 285 kts | 96° |
| 2026-05-05 18:59 | 51.16210 | 0.20250 | 9571 ft | 289 kts | 96° |
| 2026-05-05 18:59 | 51.15987 | 0.23451 | 10220 ft | 298 kts | 96° |
| 2026-05-05 18:59 | 51.15752 | 0.26808 | 10417 ft | 320 kts | 96° |
| 2026-05-05 18:59 | 51.15496 | 0.30451 | 10665 ft | 339 kts | 96° |
| 2026-05-05 19:00 | 51.15231 | 0.34220 | 11240 ft | 346 kts | 96° |
| 2026-05-05 19:00 | 51.14961 | 0.38046 | 11890 ft | 349 kts | 96° |
| 2026-05-05 19:00 | 51.14687 | 0.41917 | 12542 ft | 353 kts | 96° |
| 2026-05-05 19:00 | 51.14411 | 0.45817 | 13183 ft | 356 kts | 96° |
| 2026-05-05 19:01 | 51.14132 | 0.49749 | 13818 ft | 359 kts | 96° |
| 2026-05-05 19:01 | 51.13849 | 0.53724 | 14442 ft | 363 kts | 96° |
| 2026-05-05 19:01 | 51.13563 | 0.57726 | 15039 ft | 366 kts | 96° |
| 2026-05-05 19:01 | 51.13275 | 0.61768 | 15617 ft | 369 kts | 96° |
| 2026-05-05 19:02 | 51.12987 | 0.65790 | 16170 ft | 372 kts | 96° |
| 2026-05-05 19:02 | 51.12687 | 0.69893 | 16728 ft | 375 kts | 97° |
| 2026-05-05 19:02 | 51.12327 | 0.74021 | 17282 ft | 378 kts | 98° |
| 2026-05-05 19:02 | 51.11909 | 0.78169 | 17835 ft | 381 kts | 99° |
| 2026-05-05 19:03 | 51.11456 | 0.82343 | 18385 ft | 384 kts | 100° |
| 2026-05-05 19:03 | 51.10991 | 0.86549 | 18940 ft | 388 kts | 100° |
| 2026-05-05 19:03 | 51.10526 | 0.90794 | 19497 ft | 391 kts | 99° |
| 2026-05-05 19:03 | 51.10067 | 0.95075 | 20048 ft | 394 kts | 99° |
| 2026-05-05 19:04 | 51.09611 | 0.99388 | 20589 ft | 397 kts | 99° |
| 2026-05-05 19:04 | 51.09150 | 1.03734 | 21097 ft | 400 kts | 99° |
| 2026-05-05 19:04 | 51.08686 | 1.08117 | 21587 ft | 403 kts | 99° |
| 2026-05-05 19:04 | 51.08220 | 1.12528 | 22057 ft | 406 kts | 99° |
| 2026-05-05 19:05 | 51.07751 | 1.16976 | 22517 ft | 409 kts | 99° |
| 2026-05-05 19:05 | 51.07286 | 1.21385 | 22963 ft | 411 kts | 99° |
| 2026-05-05 19:05 | 51.06806 | 1.25884 | 23405 ft | 414 kts | 99° |
| 2026-05-05 19:05 | 51.06314 | 1.30410 | 23827 ft | 417 kts | 100° |
| 2026-05-05 19:06 | 51.05816 | 1.34962 | 24240 ft | 419 kts | 100° |
| 2026-05-05 19:06 | 51.05317 | 1.39539 | 24636 ft | 422 kts | 100° |
| 2026-05-05 19:06 | 51.04816 | 1.44150 | 25025 ft | 424 kts | 99° |
| 2026-05-05 19:06 | 51.04315 | 1.48782 | 25396 ft | 427 kts | 99° |
| 2026-05-05 19:07 | 51.03811 | 1.53439 | 25758 ft | 429 kts | 99° |
| 2026-05-05 19:07 | 51.03301 | 1.58121 | 26111 ft | 431 kts | 100° |
| 2026-05-05 19:07 | 51.02795 | 1.62764 | 26452 ft | 434 kts | 100° |
| 2026-05-05 19:07 | 51.02278 | 1.67496 | 26793 ft | 436 kts | 100° |
| 2026-05-05 19:08 | 51.01754 | 1.72243 | 27129 ft | 438 kts | 100° |
| 2026-05-05 19:08 | 51.01223 | 1.77022 | 27455 ft | 440 kts | 100° |
| 2026-05-05 19:08 | 51.00685 | 1.81819 | 27781 ft | 443 kts | 100° |
| 2026-05-05 19:08 | 51.00140 | 1.86644 | 28110 ft | 445 kts | 100° |
| 2026-05-05 19:09 | 50.99588 | 1.91481 | 28424 ft | 447 kts | 100° |
| 2026-05-05 19:09 | 50.99032 | 1.96349 | 28733 ft | 449 kts | 100° |
| 2026-05-05 19:09 | 50.98483 | 2.01169 | 29028 ft | 451 kts | 100° |
| 2026-05-05 19:09 | 50.97927 | 2.06078 | 29328 ft | 453 kts | 100° |
| 2026-05-05 19:10 | 50.97371 | 2.10979 | 29737 ft | 452 kts | 100° |
| 2026-05-05 19:10 | 50.96816 | 2.15877 | 30151 ft | 451 kts | 100° |
| 2026-05-05 19:10 | 50.96258 | 2.20764 | 30560 ft | 450 kts | 100° |
| 2026-05-05 19:10 | 50.95697 | 2.25638 | 30958 ft | 449 kts | 100° |
| 2026-05-05 19:11 | 50.95133 | 2.30502 | 31353 ft | 448 kts | 100° |
| 2026-05-05 19:11 | 50.94566 | 2.35363 | 31744 ft | 447 kts | 101° |
| 2026-05-05 19:11 | 50.93997 | 2.40208 | 32132 ft | 447 kts | 101° |
| 2026-05-05 19:11 | 50.93428 | 2.45040 | 32514 ft | 446 kts | 101° |
| 2026-05-05 19:12 | 50.92855 | 2.49870 | 32898 ft | 445 kts | 101° |
| 2026-05-05 19:12 | 50.92291 | 2.54624 | 33266 ft | 445 kts | 101° |
| 2026-05-05 19:12 | 50.91723 | 2.59439 | 33637 ft | 444 kts | 101° |
| 2026-05-05 19:12 | 50.91157 | 2.64237 | 34006 ft | 443 kts | 101° |
| 2026-05-05 19:13 | 50.90589 | 2.69035 | 34359 ft | 443 kts | 101° |
| 2026-05-05 19:13 | 50.90017 | 2.73826 | 34695 ft | 442 kts | 101° |
| 2026-05-05 19:13 | 50.89438 | 2.78607 | 34952 ft | 442 kts | 101° |
| 2026-05-05 19:13 | 50.88853 | 2.83401 | 35015 ft | 446 kts | 101° |
| 2026-05-05 19:14 | 50.87676 | 2.93052 | 35006 ft | 451 kts | 101° |
| 2026-05-05 19:14 | 50.86482 | 3.02803 | 35006 ft | 452 kts | 101° |
| 2026-05-05 19:15 | 50.85283 | 3.12565 | 35012 ft | 452 kts | 101° |
| 2026-05-05 19:15 | 50.84079 | 3.22319 | 35006 ft | 452 kts | 101° |
| 2026-05-05 19:16 | 50.82859 | 3.32068 | 35013 ft | 452 kts | 101° |
| 2026-05-05 19:16 | 50.81625 | 3.41809 | 35016 ft | 452 kts | 101° |
| 2026-05-05 19:17 | 50.80397 | 3.51489 | 35016 ft | 452 kts | 101° |
| 2026-05-05 19:17 | 50.79148 | 3.61228 | 35020 ft | 452 kts | 101° |
| 2026-05-05 19:18 | 50.77903 | 3.70965 | 35017 ft | 452 kts | 101° |
| 2026-05-05 19:18 | 50.76645 | 3.80699 | 35024 ft | 452 kts | 102° |
| 2026-05-05 19:19 | 50.75380 | 3.90356 | 35022 ft | 452 kts | 102° |
| 2026-05-05 19:19 | 50.74099 | 4.00074 | 35018 ft | 452 kts | 102° |
| 2026-05-05 19:20 | 50.72816 | 4.09782 | 35018 ft | 452 kts | 102° |
| 2026-05-05 19:20 | 50.71529 | 4.19501 | 35020 ft | 452 kts | 102° |
| 2026-05-05 19:21 | 50.70235 | 4.29141 | 35022 ft | 452 kts | 102° |
| 2026-05-05 19:21 | 50.68922 | 4.38847 | 35019 ft | 452 kts | 102° |
| 2026-05-05 19:22 | 50.67603 | 4.48547 | 35026 ft | 452 kts | 102° |
| 2026-05-05 19:22 | 50.66273 | 4.58239 | 35021 ft | 453 kts | 102° |
| 2026-05-05 19:23 | 50.64932 | 4.67929 | 35019 ft | 453 kts | 102° |
| 2026-05-05 19:23 | 50.63598 | 4.77549 | 35023 ft | 453 kts | 102° |
| 2026-05-05 19:24 | 50.62253 | 4.87240 | 35020 ft | 453 kts | 102° |
| 2026-05-05 19:24 | 50.60897 | 4.96932 | 35021 ft | 453 kts | 102° |
| 2026-05-05 19:25 | 50.59539 | 5.06541 | 35025 ft | 453 kts | 102° |
| 2026-05-05 19:25 | 50.58164 | 5.16200 | 34527 ft | 454 kts | 103° |
| 2026-05-05 19:26 | 50.57463 | 5.21104 | 33342 ft | 465 kts | 103° |
| 2026-05-05 19:26 | 50.56745 | 5.26101 | 32230 ft | 471 kts | 103° |
| 2026-05-05 19:26 | 50.56021 | 5.31116 | 31580 ft | 467 kts | 103° |
| 2026-05-05 19:26 | 50.55306 | 5.36067 | 31021 ft | 461 kts | 103° |
| 2026-05-05 19:27 | 50.54602 | 5.40956 | 30434 ft | 457 kts | 103° |
| 2026-05-05 19:27 | 50.53900 | 5.45813 | 29845 ft | 453 kts | 103° |
| 2026-05-05 19:27 | 50.53202 | 5.50623 | 29268 ft | 449 kts | 103° |
| 2026-05-05 19:27 | 50.52584 | 5.55411 | 28680 ft | 446 kts | 97° |
| 2026-05-05 19:28 | 50.52464 | 5.60183 | 28117 ft | 441 kts | 86° |
| 2026-05-05 19:28 | 50.52913 | 5.64921 | 27560 ft | 437 kts | 75° |
| 2026-05-05 19:28 | 50.53910 | 5.69363 | 27268 ft | 426 kts | 65° |
| 2026-05-05 19:28 | 50.55268 | 5.73461 | 26822 ft | 421 kts | 62° |
| 2026-05-05 19:29 | 50.56641 | 5.77495 | 26335 ft | 417 kts | 62° |
| 2026-05-05 19:29 | 50.58000 | 5.81512 | 25838 ft | 414 kts | 62° |
| 2026-05-05 19:29 | 50.59343 | 5.85494 | 25345 ft | 410 kts | 62° |
| 2026-05-05 19:29 | 50.60677 | 5.89450 | 24876 ft | 407 kts | 62° |
| 2026-05-05 19:30 | 50.62001 | 5.93373 | 24409 ft | 405 kts | 62° |
| 2026-05-05 19:30 | 50.63315 | 5.97272 | 23945 ft | 402 kts | 62° |
| 2026-05-05 19:30 | 50.64618 | 6.01153 | 23512 ft | 399 kts | 62° |
| 2026-05-05 19:30 | 50.66149 | 6.04703 | 23099 ft | 396 kts | 47° |
| 2026-05-05 19:31 | 50.68237 | 6.07440 | 22457 ft | 389 kts | 30° |
| 2026-05-05 19:31 | 50.70592 | 6.09489 | 21645 ft | 385 kts | 28° |
| 2026-05-05 19:31 | 50.72934 | 6.11495 | 20821 ft | 381 kts | 28° |
| 2026-05-05 19:31 | 50.75247 | 6.13486 | 20005 ft | 376 kts | 28° |
| 2026-05-05 19:32 | 50.77528 | 6.15454 | 19199 ft | 371 kts | 28° |
| 2026-05-05 19:32 | 50.79779 | 6.17403 | 18376 ft | 367 kts | 28° |
| 2026-05-05 19:32 | 50.82002 | 6.19335 | 17556 ft | 362 kts | 28° |
| 2026-05-05 19:32 | 50.84196 | 6.21246 | 16750 ft | 358 kts | 28° |
| 2026-05-05 19:33 | 50.86363 | 6.23133 | 15933 ft | 353 kts | 28° |
| 2026-05-05 19:33 | 50.88506 | 6.24996 | 15127 ft | 349 kts | 28° |
| 2026-05-05 19:33 | 50.90620 | 6.26840 | 14334 ft | 345 kts | 28° |
| 2026-05-05 19:33 | 50.92706 | 6.28666 | 13544 ft | 341 kts | 28° |
| 2026-05-05 19:34 | 50.94718 | 6.30431 | 13171 ft | 325 kts | 28° |
| 2026-05-05 19:34 | 50.96634 | 6.32113 | 12929 ft | 307 kts | 28° |
| 2026-05-05 19:34 | 50.98479 | 6.33733 | 12423 ft | 301 kts | 28° |
| 2026-05-05 19:35 | 51.02097 | 6.36910 | 11262 ft | 295 kts | 28° |
| 2026-05-05 19:35 | 51.03879 | 6.38473 | 10789 ft | 288 kts | 28° |
| 2026-05-05 19:35 | 51.05572 | 6.39960 | 10651 ft | 269 kts | 28° |
| 2026-05-05 19:35 | 51.07160 | 6.41357 | 10521 ft | 252 kts | 28° |
| 2026-05-05 19:36 | 51.08665 | 6.42684 | 10258 ft | 242 kts | 28° |
| 2026-05-05 19:36 | 51.10093 | 6.43948 | 10093 ft | 229 kts | 28° |
| 2026-05-05 19:36 | 51.11470 | 6.45165 | 9743 ft | 225 kts | 28° |
| 2026-05-05 19:36 | 51.12809 | 6.46348 | 9573 ft | 214 kts | 28° |
| 2026-05-05 19:37 | 51.13659 | 6.47100 | 9484 ft | 208 kts | 28° |
| 2026-05-05 19:37 | 51.15197 | 6.48626 | 9196 ft | 184 kts | 42° |
| 2026-05-05 19:37 | 51.15971 | 6.50093 | 8960 ft | 166 kts | 53° |
| 2026-05-05 19:37 | 51.16638 | 6.51559 | 8546 ft | 161 kts | 53° |
| 2026-05-05 19:38 | 51.17304 | 6.52981 | 8139 ft | 159 kts | 51° |
| 2026-05-05 19:38 | 51.17986 | 6.54378 | 7698 ft | 160 kts | 52° |
| 2026-05-05 19:38 | 51.18432 | 6.55305 | 7401 ft | 159 kts | 52° |
| 2026-05-05 19:38 | 51.19100 | 6.56707 | 6974 ft | 158 kts | 52° |
| 2026-05-05 19:39 | 51.19747 | 6.58113 | 6555 ft | 157 kts | 54° |
| 2026-05-05 19:39 | 51.20383 | 6.59540 | 5931 ft | 165 kts | 52° |
| 2026-05-05 19:39 | 51.21151 | 6.61086 | 5014 ft | 185 kts | 51° |
| 2026-05-05 19:39 | 51.21930 | 6.62665 | 4464 ft | 178 kts | 52° |
| 2026-05-05 19:40 | 51.22948 | 6.64741 | 3472 ft | 183 kts | 52° |
| 2026-05-05 19:40 | 51.23481 | 6.65845 | 2866 ft | 192 kts | 52° |
| 2026-05-05 19:40 | 51.24300 | 6.67522 | 2276 ft | 182 kts | 52° |
| 2026-05-05 19:40 | 51.25042 | 6.69085 | 1724 ft | 174 kts | 53° |
| 2026-05-05 19:41 | 51.25769 | 6.70610 | 1155 ft | 170 kts | 51° |
| 2026-05-05 19:41 | 51.26465 | 6.72054 | 735 ft | 160 kts | 52° |
| 2026-05-05 19:41 | 51.27105 | 6.73416 | 468 ft | 147 kts | 52° |
| 2026-05-05 19:41 | 51.27720 | 6.74711 | 295 ft | 145 kts | 52° |
| 2026-05-05 19:42 | 51.28331 | 6.75978 | 132 ft | 141 kts | 52° |
| 2026-05-05 19:42 | 51.28834 | 6.77034 | 127 ft | 73 kts | 53° |
| 2026-05-05 19:42 | 51.29092 | 6.77571 | 130 ft | 50 kts | 53° |
| 2026-05-05 19:42 | 51.29257 | 6.77919 | 134 ft | 26 kts | 53° |
| 2026-05-05 19:43 | 51.29298 | 6.78064 | 135 ft | 15 kts | 88° |
| 2026-05-05 19:43 | 51.29252 | 6.78194 | 135 ft | 6 kts | 148° |
| 2026-05-05 19:43 | 51.29238 | 6.78206 | 135 ft | 0 kts | 153° |
| 2026-05-05 19:44 | 51.29230 | 6.78213 | 135 ft | 3 kts | 153° |
| 2026-05-05 19:44 | 51.29199 | 6.78221 | 135 ft | 6 kts | 182° |
| 2026-05-05 19:44 | 51.29163 | 6.78185 | 135 ft | 7 kts | 227° |
| 2026-05-05 19:45 | 51.29126 | 6.78107 | 134 ft | 10 kts | 234° |
| 2026-05-05 19:45 | 51.29076 | 6.78004 | 134 ft | 13 kts | 230° |
| 2026-05-05 19:45 | 51.29018 | 6.77883 | 134 ft | 15 kts | 232° |
| 2026-05-05 19:45 | 51.28943 | 6.77729 | 131 ft | 19 kts | 232° |
| 2026-05-05 19:46 | 51.28856 | 6.77545 | 127 ft | 23 kts | 233° |
| 2026-05-05 19:46 | 51.28762 | 6.77345 | 131 ft | 21 kts | 233° |
| 2026-05-05 19:46 | 51.28674 | 6.77163 | 132 ft | 19 kts | 232° |
| 2026-05-05 19:46 | 51.28593 | 6.76991 | 132 ft | 21 kts | 232° |
| 2026-05-05 19:47 | 51.28514 | 6.76828 | 129 ft | 19 kts | 233° |
| 2026-05-05 19:47 | 51.28426 | 6.76642 | 126 ft | 23 kts | 231° |
| 2026-05-05 19:47 | 51.28330 | 6.76439 | 124 ft | 23 kts | 234° |
| 2026-05-05 19:47 | 51.28235 | 6.76238 | 127 ft | 22 kts | 233° |
| 2026-05-05 19:48 | 51.28150 | 6.76057 | 125 ft | 12 kts | 231° |
| 2026-05-05 19:48 | 51.28079 | 6.76043 | 126 ft | 12 kts | 162° |
| 2026-05-05 19:48 | 51.27993 | 6.76047 | 127 ft | 13 kts | 181° |
| 2026-05-05 19:48 | 51.27890 | 6.76051 | 127 ft | 17 kts | 178° |
| 2026-05-05 19:49 | 51.27764 | 6.76045 | 127 ft | 17 kts | 183° |
| 2026-05-05 19:49 | 51.27689 | 6.76044 | 127 ft | 9 kts | 160° |
| 2026-05-05 19:49 | 51.27700 | 6.76076 | 127 ft | 6 kts | 9° |
| 2026-05-05 19:49 | 51.27793 | 6.76070 | 125 ft | 12 kts | 13° |
| 2026-05-05 19:50 | 51.27793 | 6.76125 | 126 ft | 6 kts | 152° |
| 2026-05-05 19:50 | 51.27759 | 6.76144 | 125 ft | 3 kts | 166° |
| 2026-05-05 19:50 | 51.27743 | 6.76154 | 127 ft | 2 kts | 158° |
| 2026-05-05 19:50 | 51.27739 | 6.76157 | 126 ft | 0 kts | 158° |